createdAt,value
2023-04-16T00:02:06.529Z,97434.28
2023-04-16T00:05:09.091Z,97439.53
2023-04-16T00:08:11.236Z,97439.09
2023-04-16T00:11:13.242Z,97414.75
2023-04-16T00:14:15.328Z,97430.34
2023-04-16T00:17:17.413Z,97399.72
2023-04-16T00:20:20.680Z,97432.13
2023-04-16T00:23:22.731Z,97439.59
2023-04-16T00:26:24.703Z,97437.34
2023-04-16T00:29:28.971Z,97426.78
2023-04-16T00:32:31.085Z,97400.16
2023-04-16T00:35:33.167Z,97429.16
2023-04-16T00:38:35.671Z,97436.41
2023-04-16T00:41:38.646Z,97424.19
2023-04-16T00:44:40.772Z,97436.13
2023-04-16T00:47:43.018Z,97448.19
2023-04-16T00:50:45.180Z,97421.34
2023-04-16T00:53:48.090Z,97453.47
2023-04-16T00:56:51.337Z,97442.84
2023-04-16T00:59:54.639Z,97452.28
2023-04-16T01:02:57.403Z,97445.78
2023-04-16T01:05:59.570Z,97452.03
2023-04-16T01:09:01.989Z,97458.28
2023-04-16T01:12:04.052Z,97459.72
2023-04-16T01:15:06.602Z,97436.78
2023-04-16T01:18:19.100Z,97461.84
2023-04-16T01:21:21.168Z,97468.00
2023-04-16T01:24:23.222Z,97447.81
2023-04-16T01:27:25.296Z,97465.63
2023-04-16T01:30:27.341Z,97425.19
2023-04-16T01:33:39.944Z,97471.81
2023-04-16T01:36:42.469Z,97471.97
2023-04-16T01:39:44.511Z,97481.84
2023-04-16T01:42:46.557Z,97486.81
2023-04-16T01:45:48.621Z,97487.16
2023-04-16T01:48:50.801Z,97483.28
2023-04-16T01:51:54.427Z,97481.22
2023-04-16T01:54:56.621Z,97486.72
2023-04-16T01:57:58.648Z,97465.88
2023-04-16T02:01:06.001Z,97473.81
2023-04-16T02:04:08.750Z,97477.16
2023-04-16T02:07:11.677Z,97486.38
2023-04-16T02:10:13.771Z,97482.16
2023-04-16T02:13:16.915Z,97478.97
2023-04-16T02:16:21.297Z,97484.22
2023-04-16T02:19:30.200Z,97484.09
2023-04-16T02:22:32.227Z,97479.59
2023-04-16T02:25:39.237Z,97453.41
2023-04-16T02:28:41.575Z,97486.03
2023-04-16T02:31:47.030Z,97476.63
2023-04-16T02:34:49.604Z,97482.22
2023-04-16T02:37:51.723Z,97489.53
2023-04-16T02:40:53.750Z,97484.03
2023-04-16T02:43:56.548Z,97486.28
2023-04-16T02:46:58.539Z,97487.56
2023-04-16T02:50:00.517Z,97486.81
2023-04-16T02:53:02.550Z,97495.38
2023-04-16T02:56:04.786Z,97498.88
2023-04-16T02:59:06.950Z,97493.56
2023-04-16T03:02:09.266Z,97500.66
2023-04-16T03:05:12.533Z,97507.59
2023-04-16T03:08:14.754Z,97497.75
2023-04-16T03:11:17.017Z,97496.19
2023-04-16T03:14:19.291Z,97505.69
2023-04-16T03:17:21.284Z,97515.88
2023-04-16T03:20:23.547Z,97512.31
2023-04-16T03:23:28.642Z,97495.53
2023-04-16T03:26:30.812Z,97514.66
2023-04-16T03:29:33.105Z,97525.16
2023-04-16T03:32:35.188Z,97505.00
2023-04-16T03:35:39.039Z,97523.63
2023-04-16T03:38:41.172Z,97522.47
2023-04-16T03:41:43.294Z,97515.44
2023-04-16T03:44:45.516Z,97500.66
2023-04-16T03:47:52.761Z,97510.63
2023-04-16T03:50:58.376Z,97530.56
2023-04-16T03:54:00.936Z,97534.63
2023-04-16T03:57:04.143Z,97513.56
2023-04-16T04:00:06.900Z,97533.88
2023-04-16T04:03:31.177Z,97531.44
2023-04-16T04:06:33.621Z,97544.25
2023-04-16T04:09:35.689Z,97537.31
2023-04-16T04:12:38.752Z,97560.41
2023-04-16T04:15:40.823Z,97560.06
2023-04-16T04:18:44.474Z,97563.50
2023-04-16T04:21:46.882Z,97563.94
2023-04-16T04:24:48.964Z,97567.16
2023-04-16T04:27:51.117Z,97568.97
2023-04-16T04:30:53.047Z,97570.44
2023-04-16T04:33:55.096Z,97574.84
2023-04-16T04:36:57.096Z,97576.91
2023-04-16T04:40:00.264Z,97570.22
2023-04-16T04:43:02.708Z,97546.03
2023-04-16T04:46:04.803Z,97593.16
2023-04-16T04:49:07.595Z,97603.31
2023-04-16T04:52:09.941Z,97605.16
2023-04-16T04:55:12.729Z,97603.41
2023-04-16T04:58:16.034Z,97560.78
2023-04-16T05:01:18.752Z,97621.31
2023-04-16T05:04:20.952Z,97622.38
2023-04-16T05:07:23.017Z,97630.91
2023-04-16T05:10:25.059Z,97625.31
2023-04-16T05:13:27.314Z,97640.94
2023-04-16T05:16:29.336Z,97632.91
2023-04-16T05:19:31.694Z,97640.00
2023-04-16T05:22:35.017Z,97636.16
2023-04-16T05:25:37.215Z,97646.78
2023-04-16T05:28:39.275Z,97645.97
2023-04-16T05:31:41.361Z,97648.25
2023-04-16T05:34:43.406Z,97615.41
2023-04-16T05:37:45.455Z,97640.19
2023-04-16T05:40:47.635Z,97643.28
2023-04-16T05:43:49.678Z,97644.13
2023-04-16T05:46:51.960Z,97626.28
2023-04-16T05:49:53.974Z,97646.97
2023-04-16T05:52:55.959Z,97644.97
2023-04-16T05:55:58.017Z,97638.72
2023-04-16T05:59:00.082Z,97649.25
2023-04-16T06:02:02.351Z,97638.94
2023-04-16T06:05:04.792Z,97640.97
2023-04-16T06:08:06.951Z,97648.25
2023-04-16T06:11:09.803Z,97644.22
2023-04-16T06:14:12.097Z,97651.72
2023-04-16T06:17:14.119Z,97610.31
2023-04-16T06:20:16.141Z,97648.63
2023-04-16T06:23:18.153Z,97617.34
2023-04-16T06:26:20.277Z,97654.16
2023-04-16T06:29:27.894Z,97661.88
2023-04-16T06:32:35.597Z,97661.09
2023-04-16T06:35:37.582Z,97627.91
2023-04-16T06:38:39.651Z,97668.63
2023-04-16T06:41:41.681Z,97672.28
2023-04-16T06:44:43.666Z,97672.06
2023-04-16T06:47:45.758Z,97679.94
2023-04-16T06:50:47.847Z,97643.22
2023-04-16T06:53:49.915Z,97674.38
2023-04-16T06:56:52.001Z,97680.44
2023-04-16T06:59:54.098Z,97686.13
2023-04-16T07:02:58.256Z,97680.25
2023-04-16T07:06:00.624Z,97689.44
2023-04-16T07:09:02.704Z,97700.22
2023-04-16T07:12:05.071Z,97693.13
2023-04-16T07:15:07.861Z,97707.19
2023-04-16T07:18:10.058Z,97702.16
2023-04-16T07:21:12.260Z,97699.28
2023-04-16T07:24:14.298Z,97720.53
2023-04-16T07:27:17.122Z,97723.78
2023-04-16T07:30:19.130Z,97727.84
2023-04-16T07:33:21.276Z,97699.03
2023-04-16T07:36:23.329Z,97722.66
2023-04-16T07:39:25.486Z,97728.44
2023-04-16T07:42:28.364Z,97731.09
2023-04-16T07:45:30.406Z,97732.91
2023-04-16T07:48:32.372Z,97734.19
2023-04-16T07:51:34.437Z,97731.94
2023-04-16T07:54:36.488Z,97743.09
2023-04-16T07:57:38.555Z,97747.75
2023-04-16T08:00:40.761Z,97748.97
2023-04-16T08:03:43.239Z,97701.28
2023-04-16T08:06:45.676Z,97747.41
2023-04-16T08:09:49.735Z,97743.97
2023-04-16T08:12:57.553Z,97739.50
2023-04-16T08:15:59.611Z,97746.31
2023-04-16T08:19:01.910Z,97748.72
2023-04-16T08:22:04.261Z,97729.16
2023-04-16T08:25:06.766Z,97748.94
2023-04-16T08:28:08.786Z,97722.38
2023-04-16T08:31:11.035Z,97754.38
2023-04-16T08:34:13.982Z,97758.88
2023-04-16T08:37:16.041Z,97762.28
2023-04-16T08:40:18.138Z,97756.75
2023-04-16T08:43:24.386Z,97755.97
2023-04-16T08:46:27.100Z,97755.00
2023-04-16T08:49:29.875Z,97713.16
2023-04-16T08:52:32.529Z,97751.50
2023-04-16T08:55:39.964Z,97764.00
2023-04-16T08:58:42.479Z,97766.09
2023-04-16T09:01:46.703Z,97766.66
2023-04-16T09:04:50.800Z,97734.41
2023-04-16T09:07:54.698Z,97772.47
2023-04-16T09:10:57.520Z,97772.78
2023-04-16T09:14:01.007Z,97770.13
2023-04-16T09:17:04.398Z,97768.22
2023-04-16T09:20:11.492Z,97786.72
2023-04-16T09:23:13.557Z,97785.81
2023-04-16T09:26:16.370Z,97786.94
2023-04-16T09:29:37.480Z,97784.19
2023-04-16T09:32:39.598Z,97793.50
2023-04-16T09:35:54.073Z,97793.34
2023-04-16T09:38:57.772Z,97797.34
2023-04-16T09:41:59.944Z,97792.16
2023-04-16T09:45:04.916Z,97798.72
2023-04-16T09:48:07.904Z,97800.09
2023-04-16T09:51:09.945Z,97766.69
2023-04-16T09:54:12.056Z,97783.06
2023-04-16T09:57:14.537Z,97807.59
2023-04-16T10:00:19.093Z,97807.81
2023-04-16T10:03:33.185Z,97806.09
2023-04-16T10:06:35.445Z,97809.88
2023-04-16T10:09:46.109Z,97804.78
2023-04-16T10:12:52.665Z,97816.59
2023-04-16T10:15:58.126Z,97806.09
2023-04-16T10:19:00.392Z,97802.84
2023-04-16T10:22:03.214Z,97797.28
2023-04-16T10:25:08.512Z,97795.41
2023-04-16T10:28:14.437Z,97795.91
2023-04-16T10:31:17.967Z,97808.50
2023-04-16T10:34:21.541Z,97798.00
2023-04-16T10:37:34.875Z,97807.25
2023-04-16T10:40:37.508Z,97803.06
2023-04-16T10:43:50.488Z,97817.94
2023-04-16T10:46:55.140Z,97818.34
2023-04-16T10:49:58.428Z,97810.88
2023-04-16T10:53:20.099Z,97816.63
2023-04-16T10:56:27.489Z,97821.63
2023-04-16T10:59:35.140Z,97817.13
2023-04-16T11:02:41.399Z,97801.63
2023-04-16T11:05:47.426Z,97814.88
2023-04-16T11:08:54.955Z,97811.66
2023-04-16T11:11:57.900Z,97811.50
2023-04-16T11:15:09.792Z,97808.19
2023-04-16T11:18:11.926Z,97801.34
2023-04-16T11:21:14.085Z,97817.28
2023-04-16T11:24:16.383Z,97798.69
2023-04-16T11:27:18.536Z,97785.63
2023-04-16T11:30:36.697Z,97782.53
2023-04-16T11:33:39.387Z,97826.22
2023-04-16T11:36:48.525Z,97822.63
2023-04-16T11:39:53.796Z,97823.31
2023-04-16T11:42:56.205Z,97815.91
2023-04-16T11:46:05.449Z,97825.66
2023-04-16T11:49:17.499Z,97794.19
2023-04-16T11:52:32.259Z,97813.53
2023-04-16T11:55:44.436Z,97809.69
2023-04-16T11:59:12.151Z,97819.06
2023-04-16T12:02:14.588Z,97805.28
2023-04-16T12:05:31.479Z,97804.06
2023-04-16T12:08:33.581Z,97806.44
2023-04-16T12:11:40.518Z,97785.41
2023-04-16T12:14:50.819Z,97722.97
2023-04-16T12:18:07.505Z,97827.06
2023-04-16T12:21:09.655Z,97821.72
2023-04-16T12:24:14.160Z,97814.63
2023-04-16T12:27:16.512Z,97812.03
2023-04-16T12:30:20.976Z,97821.31
2023-04-16T12:33:23.354Z,97793.38
2023-04-16T12:36:25.469Z,97829.81
2023-04-16T12:39:27.742Z,97819.84
2023-04-16T12:42:35.783Z,97827.94
2023-04-16T12:45:39.022Z,97816.28
2023-04-16T12:48:41.809Z,97834.53
2023-04-16T12:51:43.890Z,97801.22
2023-04-16T12:54:46.029Z,97807.59
2023-04-16T12:57:53.281Z,97822.84
2023-04-16T13:00:55.380Z,97828.28
2023-04-16T13:03:57.884Z,97831.38
2023-04-16T13:07:00.773Z,97830.56
2023-04-16T13:10:02.847Z,97831.13
2023-04-16T13:13:05.445Z,97824.81
2023-04-16T13:16:08.955Z,97820.50
2023-04-16T13:19:11.356Z,97825.81
2023-04-16T13:22:13.781Z,97821.47
2023-04-16T13:25:16.028Z,97798.56
2023-04-16T13:28:18.505Z,97782.84
2023-04-16T13:31:22.368Z,97820.91
2023-04-16T13:34:24.625Z,97809.91
2023-04-16T13:37:26.863Z,97822.88
2023-04-16T13:40:29.714Z,97825.16
2023-04-16T13:43:32.993Z,97822.66
2023-04-16T13:46:35.046Z,97819.63
2023-04-16T13:49:37.392Z,97819.53
2023-04-16T13:52:39.659Z,97818.00
2023-04-16T13:55:42.963Z,97799.34
2023-04-16T13:58:45.592Z,97818.53
2023-04-16T14:01:47.880Z,97819.06
2023-04-16T14:04:49.875Z,97818.75
2023-04-16T14:07:52.095Z,97823.13
2023-04-16T14:10:55.733Z,97817.69
2023-04-16T14:13:58.852Z,97821.03
2023-04-16T14:17:03.482Z,97833.88
2023-04-16T14:20:07.322Z,97827.38
2023-04-16T14:23:09.750Z,97820.34
2023-04-16T14:26:12.282Z,97827.66
2023-04-16T14:29:14.381Z,97829.75
2023-04-16T14:32:16.785Z,97826.06
2023-04-16T14:35:19.198Z,97825.47
2023-04-16T14:38:21.506Z,97833.81
2023-04-16T14:41:23.507Z,97826.53
2023-04-16T14:44:25.731Z,97822.72
2023-04-16T14:47:28.949Z,97827.56
2023-04-16T14:50:31.549Z,97820.88
2023-04-16T14:53:34.689Z,97818.16
2023-04-16T14:56:36.742Z,97826.63
2023-04-16T14:59:39.186Z,97800.50
2023-04-16T15:02:42.638Z,97827.91
2023-04-16T15:05:45.255Z,97829.41
2023-04-16T15:08:47.318Z,97836.38
2023-04-16T15:11:49.528Z,97829.44
2023-04-16T15:14:51.475Z,97826.88
2023-04-16T15:17:54.108Z,97830.84
2023-04-16T15:20:56.643Z,97833.59
2023-04-16T15:23:59.465Z,97833.28
2023-04-16T15:27:03.054Z,97841.84
2023-04-16T15:30:05.524Z,97839.97
2023-04-16T15:33:08.584Z,97830.94
2023-04-16T15:36:12.198Z,97841.84
2023-04-16T15:39:14.859Z,97846.00
2023-04-16T15:42:17.361Z,97843.78
2023-04-16T15:45:19.692Z,97847.72
2023-04-16T15:48:22.339Z,97853.03
2023-04-16T15:51:25.020Z,97854.31
2023-04-16T15:54:27.371Z,97847.72
2023-04-16T15:57:30.109Z,97850.63
2023-04-16T16:00:32.602Z,97856.97
2023-04-16T16:03:36.708Z,97855.47
2023-04-16T16:06:39.546Z,97825.56
2023-04-16T16:09:42.329Z,97857.41
2023-04-16T16:12:44.797Z,97856.91
2023-04-16T16:15:47.392Z,97856.78
2023-04-16T16:18:58.828Z,97856.09
2023-04-16T16:22:01.652Z,97854.13
2023-04-16T16:25:04.761Z,97860.63
2023-04-16T16:28:07.345Z,97862.72
2023-04-16T16:31:10.087Z,97854.72
2023-04-16T16:34:19.959Z,97861.53
2023-04-16T16:37:26.914Z,97865.22
2023-04-16T16:40:31.461Z,97866.25
2023-04-16T16:43:37.760Z,97848.53
2023-04-16T16:46:40.717Z,97870.41
2023-04-16T16:49:43.399Z,97871.91
2023-04-16T16:52:46.311Z,97870.97
2023-04-16T16:55:48.877Z,97861.91
2023-04-16T16:58:51.788Z,97877.69
2023-04-16T17:01:54.449Z,97870.28
2023-04-16T17:04:59.611Z,97858.56
2023-04-16T17:08:02.489Z,97856.31
2023-04-16T17:11:06.000Z,97881.88
2023-04-16T17:14:08.804Z,97878.88
2023-04-16T17:17:11.530Z,97880.13
2023-04-16T17:20:17.676Z,97867.59
2023-04-16T17:23:28.156Z,97878.34
2023-04-16T17:26:32.547Z,97866.56
2023-04-16T17:29:35.520Z,97862.34
2023-04-16T17:32:38.684Z,97882.91
2023-04-16T17:35:41.597Z,97875.31
2023-04-16T17:38:45.076Z,97885.72
2023-04-16T17:41:47.624Z,97888.22
2023-04-16T17:44:51.491Z,97887.69
2023-04-16T17:47:54.795Z,97893.88
2023-04-16T17:50:57.564Z,97887.75
2023-04-16T17:54:00.022Z,97893.69
2023-04-16T17:57:02.763Z,97886.06
2023-04-16T18:00:12.599Z,97904.97
2023-04-16T18:03:16.253Z,97900.91
2023-04-16T18:06:20.860Z,97906.88
2023-04-16T18:09:24.211Z,97910.81
2023-04-16T18:12:27.117Z,97906.78
2023-04-16T18:15:29.887Z,97909.25
2023-04-16T18:18:32.675Z,97921.72
2023-04-16T18:21:36.395Z,97912.34
2023-04-16T18:24:39.284Z,97922.94
2023-04-16T18:27:42.362Z,97893.13
2023-04-16T18:30:45.997Z,97921.16
2023-04-16T18:33:57.602Z,97926.06
2023-04-16T18:37:04.427Z,97886.53
2023-04-16T18:40:07.609Z,97932.22
2023-04-16T18:43:10.030Z,97936.56
2023-04-16T18:46:13.620Z,97939.84
2023-04-16T18:49:16.908Z,97920.94
2023-04-16T18:52:19.473Z,97945.16
2023-04-16T18:55:22.652Z,97900.28
2023-04-16T18:58:26.247Z,97941.91
2023-04-16T19:01:30.053Z,97945.00
2023-04-16T19:04:32.704Z,97923.72
2023-04-16T19:07:36.075Z,97952.56
2023-04-16T19:10:39.295Z,97951.38
2023-04-16T19:13:42.309Z,97954.00
2023-04-16T19:16:45.417Z,97949.56
2023-04-16T19:19:48.384Z,97949.75
2023-04-16T19:22:51.241Z,97955.28
2023-04-16T19:25:54.453Z,97956.72
2023-04-16T19:28:57.991Z,97949.59
2023-04-16T19:32:02.875Z,97953.47
2023-04-16T19:35:06.215Z,97943.06
2023-04-16T19:38:10.293Z,97938.91
2023-04-16T19:41:13.403Z,97932.97
2023-04-16T19:44:15.867Z,97958.78
2023-04-16T19:47:18.649Z,97937.06
2023-04-16T19:50:22.364Z,97962.69
2023-04-16T19:53:25.289Z,97959.41
2023-04-16T19:56:27.920Z,97952.50
2023-04-16T19:59:32.869Z,97933.44
2023-04-16T20:02:35.273Z,97956.41
2023-04-16T20:05:37.752Z,97957.84
2023-04-16T20:08:40.225Z,97958.25
2023-04-16T20:11:43.840Z,97952.94
2023-04-16T20:14:46.402Z,97947.28
2023-04-16T20:17:49.066Z,97953.75
2023-04-16T20:20:51.468Z,97940.56
2023-04-16T20:23:53.885Z,97947.88
2023-04-16T20:26:57.203Z,97947.06
2023-04-16T20:30:03.703Z,97952.34
2023-04-16T20:33:07.159Z,97948.28
2023-04-16T20:36:09.658Z,97921.06
2023-04-16T20:39:12.886Z,97938.31
2023-04-16T20:42:15.276Z,97944.22
2023-04-16T20:45:18.750Z,97947.91
2023-04-16T20:48:21.115Z,97932.47
2023-04-16T20:51:23.493Z,97947.09
2023-04-16T20:54:25.879Z,97941.41
2023-04-16T20:57:29.871Z,97913.78
2023-04-16T21:00:32.152Z,97947.72
2023-04-16T21:03:34.584Z,97945.06
2023-04-16T21:06:38.794Z,97937.31
2023-04-16T21:09:41.022Z,97941.59
2023-04-16T21:12:43.170Z,97935.25
2023-04-16T21:15:45.923Z,97937.09
2023-04-16T21:18:48.183Z,97946.25
2023-04-16T21:21:50.261Z,97926.19
2023-04-16T21:24:52.401Z,97906.88
2023-04-16T21:27:54.685Z,97942.84
2023-04-16T21:30:56.689Z,97936.94
2023-04-16T21:33:58.767Z,97947.53
2023-04-16T21:37:00.893Z,97940.00
2023-04-16T21:40:05.789Z,97940.00
2023-04-16T21:43:07.839Z,97941.03
2023-04-16T21:46:09.894Z,97939.00
2023-04-16T21:49:12.171Z,97940.03
2023-04-16T21:52:14.401Z,97933.53
2023-04-16T21:55:16.457Z,97941.47
2023-04-16T21:58:18.475Z,97940.25
2023-04-16T22:01:20.546Z,97937.81
2023-04-16T22:04:26.434Z,97938.22
2023-04-16T22:07:29.104Z,97935.38
2023-04-16T22:10:31.457Z,97927.22
2023-04-16T22:13:33.590Z,97933.78
2023-04-16T22:16:36.293Z,97936.81
2023-04-16T22:19:39.457Z,97926.03
2023-04-16T22:22:42.570Z,97925.44
2023-04-16T22:25:44.823Z,97927.47
2023-04-16T22:28:46.800Z,97913.88
2023-04-16T22:31:48.927Z,97915.69
2023-04-16T22:34:52.434Z,97915.69
2023-04-16T22:37:54.419Z,97918.13
2023-04-16T22:40:56.467Z,97878.69
2023-04-16T22:43:58.551Z,97911.81
2023-04-16T22:47:00.569Z,97910.59
2023-04-16T22:50:03.489Z,97898.00
2023-04-16T22:53:05.898Z,97900.41
2023-04-16T22:56:08.110Z,97901.66
2023-04-16T22:59:10.424Z,97899.19
2023-04-16T23:02:12.817Z,97902.09
2023-04-16T23:05:15.051Z,97905.53
2023-04-16T23:08:17.141Z,97901.28
2023-04-16T23:11:19.295Z,97901.47
2023-04-16T23:14:21.525Z,97897.59
2023-04-16T23:17:23.696Z,97899.66
2023-04-16T23:20:26.239Z,97890.72
2023-04-16T23:23:28.391Z,97900.06
2023-04-16T23:26:30.493Z,97875.69
2023-04-16T23:29:32.515Z,97887.66
2023-04-16T23:32:34.617Z,97887.06
2023-04-16T23:35:36.557Z,97884.41
2023-04-16T23:38:38.543Z,97890.91
2023-04-16T23:41:40.603Z,97872.81
2023-04-16T23:44:42.686Z,97878.91
2023-04-16T23:47:44.873Z,97881.94
2023-04-16T23:50:46.908Z,97881.34
2023-04-16T23:53:49.020Z,97879.31
2023-04-16T23:56:51.050Z,97875.69
2023-04-16T23:59:53.083Z,97874.66
